createdAt,value
2019-03-21T00:00:05.131Z,58.84
2019-03-21T00:02:40.340Z,58.79
2019-03-21T00:05:14.461Z,58.93
2019-03-21T00:07:48.132Z,58.99
2019-03-21T00:11:16.083Z,59.20
2019-03-21T00:13:50.600Z,59.24
2019-03-21T00:16:24.498Z,59.13
2019-03-21T00:18:58.128Z,59.12
2019-03-21T00:21:31.812Z,59.13
2019-03-21T00:24:05.644Z,59.21
2019-03-21T00:26:39.268Z,59.09
2019-03-21T00:29:13.003Z,59.25
2019-03-21T00:31:46.673Z,59.25
2019-03-21T00:34:20.438Z,59.59
2019-03-21T00:36:54.068Z,59.78
2019-03-21T00:39:32.928Z,59.91
2019-03-21T00:42:05.744Z,60.06
2019-03-21T00:44:39.463Z,59.96
2019-03-21T00:47:13.184Z,60.17
2019-03-21T00:49:46.807Z,60.31
2019-03-21T00:52:20.451Z,60.51
2019-03-21T00:54:54.139Z,60.60
2019-03-21T00:57:27.755Z,60.67
2019-03-21T01:00:01.372Z,60.64
2019-03-21T01:02:35.273Z,60.84
2019-03-21T01:05:09.672Z,60.96
2019-03-21T01:07:43.194Z,61.40
2019-03-21T01:10:18.238Z,61.37
2019-03-21T01:12:52.801Z,61.60
2019-03-21T01:15:26.382Z,61.90
2019-03-21T01:18:00.017Z,62.10
2019-03-21T01:20:36.404Z,62.27
2019-03-21T01:23:10.087Z,62.48
2019-03-21T01:25:48.186Z,64.50
2019-03-21T01:28:21.853Z,50.87
2019-03-21T01:30:55.484Z,46.79
2019-03-21T01:33:29.101Z,48.29
2019-03-21T01:36:02.711Z,50.14
2019-03-21T01:38:36.487Z,51.62
2019-03-21T01:41:10.059Z,52.78
2019-03-21T01:43:44.705Z,53.89
2019-03-21T01:46:18.727Z,54.77
2019-03-21T01:48:52.306Z,55.53
2019-03-21T01:51:25.999Z,56.06
2019-03-21T01:53:59.521Z,56.51
2019-03-21T01:56:33.646Z,57.08
2019-03-21T01:59:07.332Z,57.97
2019-03-21T02:01:41.113Z,58.81
2019-03-21T02:04:14.635Z,58.84
2019-03-21T02:06:48.526Z,59.64
2019-03-21T02:09:22.199Z,60.37
2019-03-21T02:11:55.820Z,60.77
2019-03-21T02:14:29.306Z,61.38
2019-03-21T02:17:02.928Z,61.68
2019-03-21T02:19:36.487Z,62.12
2019-03-21T02:22:10.139Z,62.25
2019-03-21T02:24:43.832Z,65.06
2019-03-21T02:27:17.395Z,56.68
2019-03-21T02:29:51.027Z,49.16
2019-03-21T02:32:24.578Z,49.61
2019-03-21T02:34:58.213Z,51.42
2019-03-21T02:37:31.766Z,53.20
2019-03-21T02:40:05.854Z,53.96
2019-03-21T02:42:39.486Z,55.11
2019-03-21T02:45:14.828Z,56.27
2019-03-21T02:47:48.487Z,56.92
2019-03-21T02:50:33.865Z,57.34
2019-03-21T02:53:07.650Z,58.41
2019-03-21T02:55:41.358Z,58.99
2019-03-21T02:58:14.963Z,59.30
2019-03-21T03:00:48.510Z,60.27
2019-03-21T03:03:22.060Z,60.65
2019-03-21T03:05:55.626Z,61.56
2019-03-21T03:08:29.270Z,62.01
2019-03-21T03:11:03.312Z,64.46
2019-03-21T03:13:36.635Z,59.53
2019-03-21T03:16:10.285Z,50.12
2019-03-21T03:18:44.031Z,51.09
2019-03-21T03:21:18.773Z,53.36
2019-03-21T03:23:52.362Z,55.00
2019-03-21T03:26:25.964Z,56.15
2019-03-21T03:28:59.528Z,57.14
2019-03-21T03:31:33.259Z,58.18
2019-03-21T03:34:06.883Z,59.00
2019-03-21T03:36:40.586Z,60.08
2019-03-21T03:39:14.178Z,60.65
2019-03-21T03:41:47.827Z,61.43
2019-03-21T03:44:21.380Z,61.88
2019-03-21T03:46:54.963Z,62.65
2019-03-21T03:49:28.629Z,63.55
2019-03-21T03:52:02.249Z,52.15
2019-03-21T03:54:35.916Z,46.66
2019-03-21T03:57:09.621Z,48.99
2019-03-21T03:59:43.251Z,51.32
2019-03-21T04:02:16.859Z,53.33
2019-03-21T04:04:50.689Z,54.90
2019-03-21T04:07:24.268Z,55.91
2019-03-21T04:09:57.892Z,57.03
2019-03-21T04:12:31.482Z,58.20
2019-03-21T04:15:05.150Z,58.85
2019-03-21T04:17:38.715Z,59.62
2019-03-21T04:20:15.296Z,60.30
2019-03-21T04:22:48.948Z,61.01
2019-03-21T04:25:27.260Z,61.88
2019-03-21T04:28:00.983Z,64.00
2019-03-21T04:30:34.561Z,59.33
2019-03-21T04:33:08.261Z,50.91
2019-03-21T04:35:42.063Z,52.10
2019-03-21T04:38:15.773Z,54.28
2019-03-21T04:40:49.458Z,55.77
2019-03-21T04:43:23.482Z,57.06
2019-03-21T04:46:03.382Z,58.34
2019-03-21T04:48:32.483Z,59.17
2019-03-21T04:51:07.225Z,59.55
2019-03-21T04:53:40.956Z,60.25
2019-03-21T04:56:14.468Z,61.39
2019-03-21T04:58:48.115Z,62.10
2019-03-21T05:01:21.804Z,62.51
2019-03-21T05:03:55.369Z,63.86
2019-03-21T05:06:28.869Z,51.90
2019-03-21T05:09:02.503Z,47.74
2019-03-21T05:11:36.180Z,49.92
2019-03-21T05:14:09.813Z,52.09
2019-03-21T05:16:44.530Z,53.85
2019-03-21T05:19:18.118Z,55.37
2019-03-21T05:21:51.771Z,56.55
2019-03-21T05:24:25.377Z,57.61
2019-03-21T05:26:59.051Z,58.28
2019-03-21T05:29:33.052Z,59.38
2019-03-21T05:32:06.725Z,60.24
2019-03-21T05:34:40.426Z,60.84
2019-03-21T05:37:14.074Z,61.41
2019-03-21T05:39:47.654Z,62.13
2019-03-21T05:42:24.247Z,62.70
2019-03-21T05:44:57.886Z,62.75
2019-03-21T05:47:31.546Z,50.28
2019-03-21T05:50:05.616Z,49.23
2019-03-21T05:52:39.281Z,51.64
2019-03-21T05:55:13.064Z,53.71
2019-03-21T05:57:46.690Z,55.23
2019-03-21T06:00:25.661Z,56.50
2019-03-21T06:02:59.338Z,57.31
2019-03-21T06:05:33.340Z,58.50
2019-03-21T06:08:30.180Z,59.66
2019-03-21T06:11:03.763Z,60.53
2019-03-21T06:13:37.385Z,61.07
2019-03-21T06:16:13.215Z,61.66
2019-03-21T06:19:18.543Z,62.01
2019-03-21T06:22:30.595Z,65.54
2019-03-21T06:25:37.303Z,52.51
2019-03-21T06:28:11.012Z,47.17
2019-03-21T06:30:44.691Z,50.27
2019-03-21T06:33:18.405Z,52.02
2019-03-21T06:35:51.955Z,53.88
2019-03-21T06:38:25.537Z,54.59
2019-03-21T06:40:59.201Z,55.91
2019-03-21T06:43:32.725Z,56.79
2019-03-21T06:46:06.319Z,57.97
2019-03-21T06:48:39.993Z,58.64
2019-03-21T06:51:13.658Z,59.23
2019-03-21T06:53:47.179Z,59.89
2019-03-21T06:56:20.672Z,60.39
2019-03-21T06:58:54.285Z,60.67
2019-03-21T07:01:27.808Z,61.56
2019-03-21T07:04:07.011Z,61.92
2019-03-21T07:06:36.578Z,62.81
2019-03-21T07:09:11.543Z,62.52
2019-03-21T07:11:45.077Z,51.18
2019-03-21T07:14:18.685Z,49.16
2019-03-21T07:17:00.071Z,50.88
2019-03-21T07:19:27.523Z,52.89
2019-03-21T07:22:01.063Z,54.24
2019-03-21T07:24:34.772Z,55.34
2019-03-21T07:27:08.333Z,56.27
2019-03-21T07:29:42.066Z,57.35
2019-03-21T07:32:15.551Z,58.18
2019-03-21T07:34:49.055Z,59.06
2019-03-21T07:37:22.635Z,59.89
2019-03-21T07:39:56.192Z,60.33
2019-03-21T07:42:29.884Z,60.84
2019-03-21T07:45:03.445Z,61.68
2019-03-21T07:47:37.138Z,62.17
2019-03-21T07:50:12.339Z,63.15
2019-03-21T07:52:45.951Z,51.87
2019-03-21T07:55:19.479Z,49.18
2019-03-21T07:57:53.108Z,51.17
2019-03-21T08:00:26.762Z,52.75
2019-03-21T08:03:00.440Z,54.70
2019-03-21T08:05:40.197Z,55.91
2019-03-21T08:08:09.404Z,56.84
2019-03-21T08:10:43.117Z,57.47
2019-03-21T08:13:16.630Z,58.13
2019-03-21T08:15:50.161Z,59.03
2019-03-21T08:18:23.787Z,59.45
2019-03-21T08:20:59.897Z,59.80
2019-03-21T08:23:33.920Z,60.18
2019-03-21T08:26:07.661Z,60.44
2019-03-21T08:28:41.802Z,61.08
2019-03-21T08:31:20.017Z,61.57
2019-03-21T08:33:53.597Z,62.11
2019-03-21T08:36:27.245Z,61.90
2019-03-21T08:39:00.907Z,61.99
2019-03-21T08:41:36.025Z,62.40
2019-03-21T08:44:09.703Z,62.24
2019-03-21T08:46:43.500Z,51.67
2019-03-21T08:49:17.015Z,49.93
2019-03-21T08:51:50.660Z,51.09
2019-03-21T08:54:24.260Z,52.58
2019-03-21T08:56:57.876Z,53.67
2019-03-21T08:59:31.447Z,54.44
2019-03-21T09:02:05.010Z,54.58
2019-03-21T09:04:38.648Z,55.74
2019-03-21T09:07:12.260Z,56.02
2019-03-21T09:09:45.861Z,56.34
2019-03-21T09:12:19.388Z,57.11
2019-03-21T09:14:53.057Z,57.26
2019-03-21T09:17:26.769Z,57.95
2019-03-21T09:20:00.465Z,57.79
2019-03-21T09:22:34.226Z,57.62
2019-03-21T09:25:08.735Z,57.19
2019-03-21T09:27:42.490Z,56.77
2019-03-21T09:30:16.298Z,56.91
2019-03-21T09:32:49.869Z,57.01
2019-03-21T09:35:23.437Z,57.25
2019-03-21T09:37:57.061Z,57.53
2019-03-21T09:40:30.802Z,57.64
2019-03-21T09:43:04.304Z,57.94
2019-03-21T09:45:37.950Z,57.92
2019-03-21T09:48:11.506Z,57.38
2019-03-21T09:50:45.001Z,56.40
2019-03-21T09:53:18.645Z,56.30
2019-03-21T09:55:52.323Z,56.24
2019-03-21T09:58:26.057Z,55.48
2019-03-21T10:00:59.677Z,56.02
2019-03-21T10:03:33.345Z,56.27
2019-03-21T10:06:06.872Z,56.25
2019-03-21T10:08:40.594Z,56.38
2019-03-21T10:11:14.126Z,56.71
2019-03-21T10:13:47.664Z,56.28
2019-03-21T10:16:21.206Z,56.44
2019-03-21T10:18:54.724Z,55.96
2019-03-21T10:21:28.218Z,55.68
2019-03-21T10:24:01.704Z,55.12
2019-03-21T10:26:35.234Z,55.31
2019-03-21T10:29:08.807Z,55.10
2019-03-21T10:31:42.419Z,55.10
2019-03-21T10:34:15.993Z,55.72
2019-03-21T10:36:49.610Z,55.72
2019-03-21T10:39:24.453Z,56.14
2019-03-21T10:41:58.092Z,55.82
2019-03-21T10:44:31.662Z,56.24
2019-03-21T10:47:05.241Z,56.18
2019-03-21T10:49:38.803Z,56.02
2019-03-21T10:52:12.475Z,55.79
2019-03-21T10:54:46.097Z,56.14
2019-03-21T10:57:19.699Z,56.33
2019-03-21T10:59:53.221Z,56.63
2019-03-21T11:02:26.730Z,56.49
2019-03-21T11:05:00.302Z,55.43
2019-03-21T11:07:34.050Z,55.68
2019-03-21T11:10:08.870Z,55.46
2019-03-21T11:12:42.787Z,54.58
2019-03-21T11:15:16.805Z,53.82
2019-03-21T11:17:51.061Z,53.04
2019-03-21T11:20:41.522Z,53.48
2019-03-21T11:23:15.299Z,52.54
2019-03-21T11:25:49.169Z,52.82
2019-03-21T11:28:22.987Z,53.42
2019-03-21T11:30:58.058Z,52.64
2019-03-21T11:33:31.928Z,52.12
2019-03-21T11:36:05.915Z,52.48
2019-03-21T11:38:39.672Z,52.77
2019-03-21T11:41:13.368Z,52.94
2019-03-21T11:43:47.050Z,53.68
2019-03-21T11:46:20.964Z,54.41
2019-03-21T11:48:54.665Z,53.80
2019-03-21T11:51:28.501Z,54.06
2019-03-21T11:54:02.173Z,54.53
2019-03-21T11:56:35.748Z,54.77
2019-03-21T11:59:09.454Z,54.81
2019-03-21T12:01:46.255Z,55.31
2019-03-21T12:04:19.868Z,55.60
2019-03-21T12:06:54.635Z,56.07
2019-03-21T12:09:28.408Z,55.89
2019-03-21T12:12:02.139Z,56.11
2019-03-21T12:14:35.754Z,56.43
2019-03-21T12:17:09.362Z,56.63
2019-03-21T12:19:43.018Z,56.45
2019-03-21T12:22:16.607Z,57.11
2019-03-21T12:24:50.211Z,57.87
2019-03-21T12:27:23.846Z,56.74
2019-03-21T12:29:57.712Z,56.93
2019-03-21T12:32:31.424Z,57.30
2019-03-21T12:35:05.599Z,57.25
2019-03-21T12:37:39.288Z,57.61
2019-03-21T12:40:12.861Z,58.91
2019-03-21T12:42:46.586Z,59.65
2019-03-21T12:45:20.177Z,59.43
2019-03-21T12:47:55.271Z,59.96
2019-03-21T12:50:28.881Z,60.09
2019-03-21T12:53:02.483Z,59.88
2019-03-21T12:55:36.187Z,60.70
2019-03-21T12:58:09.867Z,60.49
2019-03-21T13:00:44.928Z,60.70
2019-03-21T13:03:18.649Z,60.82
2019-03-21T13:05:52.331Z,60.96
2019-03-21T13:08:33.631Z,61.11
2019-03-21T13:11:01.284Z,61.45
2019-03-21T13:13:34.954Z,61.34
2019-03-21T13:16:08.684Z,60.92
2019-03-21T13:18:42.682Z,60.73
2019-03-21T13:21:16.200Z,60.88
2019-03-21T13:23:49.989Z,60.94
2019-03-21T13:26:23.598Z,61.27
2019-03-21T13:28:57.257Z,61.20
2019-03-21T13:31:32.506Z,61.61
2019-03-21T13:34:06.550Z,61.91
2019-03-21T13:36:40.191Z,62.23
2019-03-21T13:39:13.800Z,61.60
2019-03-21T13:41:47.279Z,61.33
2019-03-21T13:44:20.841Z,61.66
2019-03-21T13:46:54.790Z,61.92
2019-03-21T13:49:28.369Z,62.02
2019-03-21T13:52:04.589Z,61.80
2019-03-21T13:54:37.164Z,61.99
2019-03-21T13:57:10.811Z,61.88
2019-03-21T13:59:44.353Z,62.32
2019-03-21T14:02:18.058Z,62.37
2019-03-21T14:04:51.582Z,62.27
2019-03-21T14:07:25.143Z,62.63
2019-03-21T14:09:58.804Z,62.15
2019-03-21T14:12:32.298Z,49.50
2019-03-21T14:15:08.331Z,49.15
2019-03-21T14:17:42.147Z,50.57
2019-03-21T14:20:17.081Z,51.99
2019-03-21T14:22:50.696Z,53.17
2019-03-21T14:25:24.283Z,54.13
2019-03-21T14:27:57.812Z,54.97
2019-03-21T14:30:31.425Z,55.39
2019-03-21T14:33:05.124Z,55.67
2019-03-21T14:35:38.931Z,55.97
2019-03-21T14:38:25.857Z,56.73
2019-03-21T14:40:52.905Z,57.15
2019-03-21T14:43:26.564Z,57.78
2019-03-21T14:46:00.287Z,58.39
2019-03-21T14:48:33.986Z,58.80
2019-03-21T14:51:07.711Z,59.79
2019-03-21T14:53:41.339Z,60.24
2019-03-21T14:56:15.070Z,60.67
2019-03-21T14:58:48.777Z,60.94
2019-03-21T15:01:22.615Z,61.59
2019-03-21T15:03:56.319Z,62.42
2019-03-21T15:06:29.823Z,64.46
2019-03-21T15:09:04.108Z,56.68
2019-03-21T15:11:38.512Z,50.44
2019-03-21T15:14:14.361Z,51.30
2019-03-21T15:16:47.973Z,52.86
2019-03-21T15:19:25.462Z,54.29
2019-03-21T15:21:59.038Z,55.75
2019-03-21T15:24:32.654Z,56.46
2019-03-21T15:27:06.291Z,57.05
2019-03-21T15:29:39.927Z,57.80
2019-03-21T15:32:13.435Z,58.90
2019-03-21T15:34:46.967Z,59.38
2019-03-21T15:37:20.532Z,60.07
2019-03-21T15:39:54.066Z,60.71
2019-03-21T15:42:27.584Z,61.14
2019-03-21T15:45:15.754Z,61.87
2019-03-21T15:47:36.816Z,63.18
2019-03-21T15:50:14.428Z,59.65
2019-03-21T15:52:48.024Z,51.42
2019-03-21T15:55:21.616Z,52.45
2019-03-21T15:57:55.775Z,54.37
2019-03-21T16:00:40.641Z,56.19
2019-03-21T16:03:14.925Z,57.22
2019-03-21T16:05:48.542Z,57.87
2019-03-21T16:08:22.112Z,58.66
2019-03-21T16:10:55.771Z,59.42
2019-03-21T16:13:31.398Z,60.90
2019-03-21T16:16:05.151Z,61.20
2019-03-21T16:18:38.842Z,61.99
2019-03-21T16:21:12.721Z,61.98
2019-03-21T16:23:46.425Z,62.50
2019-03-21T16:26:20.196Z,62.10
2019-03-21T16:28:53.785Z,51.12
2019-03-21T16:31:27.426Z,49.68
2019-03-21T16:34:00.964Z,51.61
2019-03-21T16:36:34.574Z,53.59
2019-03-21T16:39:09.835Z,55.16
2019-03-21T16:41:44.503Z,56.61
2019-03-21T16:44:18.135Z,57.42
2019-03-21T16:46:51.993Z,57.89
2019-03-21T16:49:25.528Z,58.63
2019-03-21T16:51:59.244Z,59.71
2019-03-21T16:54:34.153Z,60.24
2019-03-21T16:57:07.793Z,61.08
2019-03-21T16:59:41.474Z,61.79
2019-03-21T17:02:15.140Z,63.46
2019-03-21T17:04:48.843Z,59.40
2019-03-21T17:07:22.501Z,51.31
2019-03-21T17:09:58.053Z,52.69
2019-03-21T17:12:31.462Z,55.27
2019-03-21T17:15:05.628Z,56.94
2019-03-21T17:17:39.883Z,57.99
2019-03-21T17:20:22.606Z,58.69
2019-03-21T17:22:56.355Z,59.83
2019-03-21T17:25:31.480Z,60.83
2019-03-21T17:28:05.568Z,61.39
2019-03-21T17:30:39.599Z,61.95
2019-03-21T17:33:13.339Z,62.67
2019-03-21T17:35:47.407Z,62.96
2019-03-21T17:38:21.061Z,52.61
2019-03-21T17:40:54.872Z,50.58
2019-03-21T17:43:28.526Z,52.90
2019-03-21T17:46:03.347Z,54.89
2019-03-21T17:48:39.342Z,56.15
2019-03-21T17:51:13.304Z,57.66
2019-03-21T17:53:47.105Z,58.72
2019-03-21T17:56:20.768Z,59.74
2019-03-21T17:58:54.834Z,60.86
2019-03-21T18:01:28.558Z,61.45
2019-03-21T18:04:02.207Z,62.45
2019-03-21T18:06:35.843Z,64.00
2019-03-21T18:09:10.426Z,60.07
2019-03-21T18:11:44.017Z,51.43
2019-03-21T18:14:17.615Z,52.23
2019-03-21T18:16:51.197Z,54.38
2019-03-21T18:19:24.751Z,56.12
2019-03-21T18:21:58.360Z,57.44
2019-03-21T18:24:32.049Z,58.36
2019-03-21T18:27:05.739Z,59.17
2019-03-21T18:29:39.359Z,60.11
2019-03-21T18:32:12.927Z,61.11
2019-03-21T18:34:46.566Z,62.40
2019-03-21T18:37:20.303Z,62.88
2019-03-21T18:39:54.028Z,52.89
2019-03-21T18:42:27.590Z,49.16
2019-03-21T18:45:02.220Z,51.40
2019-03-21T18:47:35.816Z,53.46
2019-03-21T18:50:10.430Z,55.00
2019-03-21T18:52:43.983Z,56.34
2019-03-21T18:55:17.650Z,57.59
2019-03-21T18:57:53.308Z,58.54
2019-03-21T19:00:27.970Z,59.56
2019-03-21T19:03:01.704Z,60.32
2019-03-21T19:05:35.361Z,61.35
2019-03-21T19:08:09.055Z,62.14
2019-03-21T19:10:42.684Z,64.84
2019-03-21T19:13:16.283Z,55.50
2019-03-21T19:15:53.858Z,49.18
2019-03-21T19:18:28.261Z,51.55
2019-03-21T19:21:08.364Z,53.80
2019-03-21T19:23:43.107Z,55.54
2019-03-21T19:26:16.678Z,56.42
2019-03-21T19:28:50.250Z,58.14
2019-03-21T19:31:23.879Z,58.94
2019-03-21T19:33:57.575Z,59.71
2019-03-21T19:36:31.152Z,60.45
2019-03-21T19:39:06.825Z,61.16
2019-03-21T19:41:40.552Z,61.86
2019-03-21T19:44:14.161Z,64.70
2019-03-21T19:46:47.768Z,54.51
2019-03-21T19:49:21.380Z,48.90
2019-03-21T19:51:55.002Z,50.79
2019-03-21T19:54:28.657Z,52.86
2019-03-21T19:57:02.356Z,54.51
2019-03-21T19:59:35.942Z,55.97
2019-03-21T20:02:09.527Z,57.01
2019-03-21T20:04:43.178Z,58.16
2019-03-21T20:07:16.887Z,59.18
2019-03-21T20:09:50.655Z,60.10
2019-03-21T20:12:24.246Z,61.26
2019-03-21T20:14:58.022Z,61.62
2019-03-21T20:17:31.715Z,62.34
2019-03-21T20:20:06.660Z,64.46
2019-03-21T20:22:41.051Z,53.27
2019-03-21T20:25:15.286Z,48.72
2019-03-21T20:27:49.026Z,50.98
2019-03-21T20:30:22.791Z,53.04
2019-03-21T20:32:56.451Z,54.80
2019-03-21T20:35:30.022Z,56.31
2019-03-21T20:38:03.530Z,57.42
2019-03-21T20:40:39.254Z,58.60
2019-03-21T20:43:13.052Z,59.51
2019-03-21T20:45:46.783Z,60.58
2019-03-21T20:48:28.975Z,61.36
2019-03-21T20:51:02.589Z,62.26
2019-03-21T20:53:36.240Z,63.00
2019-03-21T20:56:09.778Z,62.77
2019-03-21T20:58:43.501Z,52.08
2019-03-21T21:01:17.124Z,49.00
2019-03-21T21:03:50.690Z,51.58
2019-03-21T21:06:24.345Z,53.91
2019-03-21T21:08:58.014Z,55.98
2019-03-21T21:11:31.530Z,57.62
2019-03-21T21:14:05.197Z,59.08
2019-03-21T21:16:38.830Z,59.81
2019-03-21T21:19:12.399Z,61.39
2019-03-21T21:21:45.901Z,62.69
2019-03-21T21:24:19.523Z,61.86
2019-03-21T21:26:53.106Z,50.70
2019-03-21T21:29:26.723Z,50.26
2019-03-21T21:32:00.303Z,52.79
2019-03-21T21:34:34.047Z,54.85
2019-03-21T21:37:07.732Z,56.82
2019-03-21T21:39:41.355Z,58.29
2019-03-21T21:42:14.965Z,59.38
2019-03-21T21:44:48.615Z,60.43
2019-03-21T21:47:22.123Z,61.26
2019-03-21T21:49:55.692Z,62.28
2019-03-21T21:52:41.237Z,63.45
2019-03-21T21:55:04.876Z,52.60
2019-03-21T21:57:38.552Z,49.68
2019-03-21T22:00:14.958Z,52.10
2019-03-21T22:02:48.585Z,54.46
2019-03-21T22:05:22.174Z,56.33
2019-03-21T22:07:55.768Z,57.70
2019-03-21T22:10:29.670Z,58.95
2019-03-21T22:13:03.334Z,60.09
2019-03-21T22:15:37.025Z,61.22
2019-03-21T22:18:10.542Z,62.48
2019-03-21T22:20:44.126Z,63.44
2019-03-21T22:23:17.647Z,53.05
2019-03-21T22:25:51.181Z,50.75
2019-03-21T22:28:24.901Z,52.97
2019-03-21T22:30:58.583Z,55.23
2019-03-21T22:33:33.355Z,57.17
2019-03-21T22:36:08.118Z,58.71
2019-03-21T22:38:41.718Z,60.07
2019-03-21T22:41:15.224Z,61.01
2019-03-21T22:43:48.760Z,61.98
2019-03-21T22:46:22.259Z,64.91
2019-03-21T22:48:55.883Z,56.23
2019-03-21T22:51:29.449Z,50.53
2019-03-21T22:54:04.049Z,52.69
2019-03-21T22:56:41.499Z,54.97
2019-03-21T22:59:12.850Z,56.96
2019-03-21T23:01:46.356Z,58.64
2019-03-21T23:04:19.927Z,59.94
2019-03-21T23:06:53.480Z,61.10
2019-03-21T23:09:27.178Z,62.14
2019-03-21T23:12:00.686Z,63.03
2019-03-21T23:14:34.220Z,63.51
2019-03-21T23:17:07.770Z,52.97
2019-03-21T23:19:41.425Z,49.89
2019-03-21T23:22:14.919Z,52.33
2019-03-21T23:24:48.486Z,54.57
2019-03-21T23:27:22.069Z,56.65
2019-03-21T23:29:55.684Z,58.43
2019-03-21T23:32:29.265Z,59.84
2019-03-21T23:35:02.965Z,60.97
2019-03-21T23:37:38.421Z,61.88
2019-03-21T23:40:12.913Z,62.74
2019-03-21T23:42:46.645Z,64.01
2019-03-21T23:45:20.290Z,52.75
2019-03-21T23:47:53.847Z,50.52
2019-03-21T23:50:28.444Z,52.95
2019-03-21T23:53:01.911Z,55.03
2019-03-21T23:55:35.511Z,56.88
2019-03-21T23:58:09.159Z,58.59
